CSP5 weather

St-Mathias Airport
St-Mathias, Quebec, Canada

Public forecast

Using degrees Celsius for public forecast. Weather courtesy of forecast.io.

METAR (pilot weather report)

Closest report is MontrĂ©al / Saint-Hubert Airport, 7.4 nm (13.8 km) W. Retrieved 2019/07/24 00:00 UTC (9 minutes ago):

CYHU 240000Z AUTO 34010G15KT 9SM OVC075 23/12 A2987 RMK SLP115 DENSITY ALT 1100FT

TAF (pilot weather forecast)

Forecast is more than 12 hours old.

Closest forecast is MontrĂ©al / Saint-Hubert Airport, 7.4 nm (13.8 km) W. Retrieved 2019/07/23 00:42 UTC (23 hours ago):

TAF CYHU 232338Z 2400/2424 30013KT P6SM FEW070 FM240300 23008KT P6SM FEW070 BECMG 2405/2407 01008KT FM241700 25010KT P6SM SCT060 RMK FCST BASED ON AUTO OBS. NXT FCST BY 240600Z